createdAt,value
2016-08-13T00:00:03.783Z,74760
2016-08-13T00:00:13.170Z,74758
2016-08-13T00:00:22.568Z,74759
2016-08-13T00:00:31.292Z,74760
2016-08-13T00:00:40.664Z,74762
2016-08-13T00:00:50.087Z,74761
2016-08-13T00:00:58.825Z,74759
2016-08-13T00:01:08.258Z,74758
2016-08-13T00:01:17.685Z,74761
2016-08-13T00:01:26.432Z,74761
2016-08-13T00:01:35.841Z,74759
2016-08-13T00:01:45.234Z,74759
2016-08-13T00:01:54.615Z,74757
2016-08-13T00:02:04.053Z,74757
2016-08-13T00:02:12.779Z,74757
2016-08-13T00:02:22.206Z,74761
2016-08-13T00:02:30.996Z,74759
2016-08-13T00:02:40.436Z,74760
2016-08-13T00:02:49.142Z,74759
2016-08-13T00:02:57.822Z,74759
2016-08-13T00:03:06.537Z,74758
2016-08-13T00:03:15.261Z,74756
2016-08-13T00:03:23.966Z,74757
2016-08-13T00:03:32.673Z,74760
2016-08-13T00:03:42.044Z,74757
2016-08-13T00:03:52.137Z,74758
2016-08-13T00:04:01.520Z,74761
2016-08-13T00:04:12.250Z,74760
2016-08-13T00:04:20.991Z,74758
2016-08-13T00:04:29.704Z,74758
2016-08-13T00:04:38.449Z,74756
2016-08-13T00:04:49.239Z,74760
2016-08-13T00:04:59.324Z,74754
2016-08-13T00:05:08.727Z,74756
2016-08-13T00:05:17.437Z,74757
2016-08-13T00:05:26.147Z,74759
2016-08-13T00:05:34.870Z,74757
2016-08-13T00:05:43.635Z,74758
2016-08-13T00:05:53.026Z,74760
2016-08-13T00:06:02.434Z,74756
2016-08-13T00:06:11.865Z,74760
2016-08-13T00:06:20.570Z,74756
2016-08-13T00:06:30.624Z,74761
2016-08-13T00:06:40.719Z,74757
2016-08-13T00:06:50.106Z,74757
2016-08-13T00:06:59.493Z,74756
2016-08-13T00:07:08.895Z,74757
2016-08-13T00:07:18.302Z,74758
2016-08-13T00:07:27.692Z,74756
2016-08-13T00:07:36.418Z,74754
2016-08-13T00:07:46.511Z,74756
2016-08-13T00:07:55.913Z,74757
2016-08-13T00:08:05.295Z,74763
2016-08-13T00:08:14.701Z,74760
2016-08-13T00:08:24.084Z,74756
2016-08-13T00:08:33.498Z,74757
2016-08-13T00:08:44.222Z,74758
2016-08-13T00:08:53.579Z,74757
2016-08-13T00:09:02.259Z,74761
2016-08-13T00:09:10.962Z,74761
2016-08-13T00:09:19.685Z,74762
2016-08-13T00:09:28.433Z,74760
2016-08-13T00:09:37.140Z,74761
2016-08-13T00:09:45.873Z,74759
2016-08-13T00:09:54.626Z,74759
2016-08-13T00:10:03.320Z,74758
2016-08-13T00:10:12.085Z,74757
2016-08-13T00:10:22.857Z,74759
2016-08-13T00:10:31.578Z,74758
2016-08-13T00:10:40.310Z,74758
2016-08-13T00:10:49.732Z,74756
2016-08-13T00:10:59.112Z,74754
2016-08-13T00:11:08.486Z,74756
2016-08-13T00:11:18.628Z,74759
2016-08-13T00:11:28.023Z,74756
2016-08-13T00:11:36.748Z,74757
2016-08-13T00:11:46.824Z,74761
2016-08-13T00:11:56.899Z,74757
2016-08-13T00:12:06.309Z,74759
2016-08-13T00:12:14.990Z,74759
2016-08-13T00:12:25.054Z,74759
2016-08-13T00:12:35.778Z,74759
2016-08-13T00:12:44.499Z,74759
2016-08-13T00:12:53.863Z,74758
2016-08-13T00:13:02.561Z,74761
2016-08-13T00:13:11.285Z,74762
2016-08-13T00:13:21.320Z,74761
2016-08-13T00:13:32.079Z,74760
2016-08-13T00:13:41.456Z,74760
2016-08-13T00:13:52.923Z,74759
2016-08-13T00:14:01.648Z,74758
2016-08-13T00:14:10.349Z,74758
2016-08-13T00:14:19.037Z,74759
2016-08-13T00:14:28.450Z,74759
2016-08-13T00:14:38.526Z,74756
2016-08-13T00:14:47.891Z,74759
2016-08-13T00:14:57.275Z,74764
2016-08-13T00:15:06.629Z,74761
2016-08-13T00:15:15.376Z,74761
2016-08-13T00:15:24.142Z,74760
2016-08-13T00:15:33.574Z,74757
2016-08-13T00:15:42.999Z,74762
2016-08-13T00:15:51.715Z,74760
2016-08-13T00:16:00.438Z,74760
2016-08-13T00:16:09.165Z,74761
2016-08-13T00:16:17.903Z,74761
2016-08-13T00:16:27.274Z,74760
2016-08-13T00:16:35.976Z,74760
2016-08-13T00:16:44.706Z,74758
2016-08-13T00:16:53.397Z,74761
2016-08-13T00:17:03.481Z,74764
2016-08-13T00:17:12.869Z,74760
2016-08-13T00:17:21.595Z,74761
2016-08-13T00:17:30.293Z,74760
2016-08-13T00:17:38.983Z,74762
2016-08-13T00:17:48.370Z,74761
2016-08-13T00:17:57.743Z,74760
2016-08-13T00:18:07.155Z,74761
2016-08-13T00:18:15.907Z,74762
2016-08-13T00:18:25.273Z,74760
2016-08-13T00:18:34.684Z,74758
2016-08-13T00:18:43.390Z,74761
2016-08-13T00:18:53.497Z,74756
2016-08-13T00:19:02.910Z,74761
2016-08-13T00:19:11.631Z,74762
2016-08-13T00:19:21.070Z,74763
2016-08-13T00:19:29.769Z,74763
2016-08-13T00:19:39.158Z,74764
2016-08-13T00:19:49.227Z,74761
2016-08-13T00:19:57.915Z,74764
2016-08-13T00:20:06.606Z,74763
2016-08-13T00:20:17.385Z,74763
2016-08-13T00:20:26.814Z,74761
2016-08-13T00:20:35.561Z,74763
2016-08-13T00:20:44.976Z,74759
2016-08-13T00:20:53.697Z,74757
2016-08-13T00:21:02.406Z,74761
2016-08-13T00:21:11.812Z,74762
2016-08-13T00:21:20.536Z,74759
2016-08-13T00:21:29.963Z,74760
2016-08-13T00:21:38.657Z,74760
2016-08-13T00:21:48.082Z,74758
2016-08-13T00:21:56.756Z,74760
2016-08-13T00:22:06.843Z,74757
2016-08-13T00:22:15.551Z,74761
2016-08-13T00:22:25.641Z,74762
2016-08-13T00:22:35.042Z,74758
2016-08-13T00:22:44.458Z,74761
2016-08-13T00:22:53.156Z,74760
2016-08-13T00:23:01.881Z,74761
2016-08-13T00:23:10.612Z,74761
2016-08-13T00:23:19.320Z,74762
2016-08-13T00:23:28.029Z,74756
2016-08-13T00:23:36.752Z,74759
2016-08-13T00:23:45.463Z,74762
2016-08-13T00:23:54.874Z,74755
2016-08-13T00:24:03.615Z,74759
2016-08-13T00:24:12.967Z,74763
2016-08-13T00:24:22.400Z,74760
2016-08-13T00:24:31.808Z,74760
2016-08-13T00:24:41.233Z,74758
2016-08-13T00:24:49.988Z,74762
2016-08-13T00:24:58.771Z,74759
2016-08-13T00:25:08.203Z,74761
2016-08-13T00:25:16.907Z,74759
2016-08-13T00:25:25.617Z,74758
2016-08-13T00:25:35.041Z,74764
2016-08-13T00:25:44.424Z,74760
2016-08-13T00:25:53.114Z,74760
2016-08-13T00:26:02.515Z,74761
2016-08-13T00:26:11.891Z,74762
2016-08-13T00:26:21.956Z,74761
2016-08-13T00:26:30.666Z,74762
2016-08-13T00:26:40.012Z,74758
2016-08-13T00:26:49.445Z,74759
2016-08-13T00:26:58.148Z,74758
2016-08-13T00:27:06.910Z,74758
2016-08-13T00:27:15.650Z,74762
2016-08-13T00:27:25.036Z,74760
2016-08-13T00:27:34.422Z,74762
2016-08-13T00:27:43.152Z,74758
2016-08-13T00:27:52.541Z,74756
2016-08-13T00:28:01.254Z,74759
2016-08-13T00:28:10.621Z,74760
2016-08-13T00:28:19.348Z,74760
2016-08-13T00:28:28.086Z,74763
2016-08-13T00:28:36.762Z,74761
2016-08-13T00:28:46.168Z,74763
2016-08-13T00:28:54.904Z,74760
2016-08-13T00:29:04.314Z,74764
2016-08-13T00:29:13.022Z,74765
2016-08-13T00:29:21.728Z,74759
2016-08-13T00:29:30.479Z,74762
2016-08-13T00:29:39.220Z,74763
2016-08-13T00:29:48.580Z,74763
2016-08-13T00:29:57.300Z,74763
2016-08-13T00:30:06.703Z,74764
2016-08-13T00:30:16.065Z,74763
2016-08-13T00:30:26.168Z,74760
2016-08-13T00:30:36.240Z,74759
2016-08-13T00:30:45.645Z,74761
2016-08-13T00:30:54.372Z,74762
2016-08-13T00:31:03.716Z,74761
2016-08-13T00:31:13.082Z,74761
2016-08-13T00:31:22.452Z,74761
2016-08-13T00:31:31.836Z,74757
2016-08-13T00:31:40.573Z,74761
2016-08-13T00:31:50.001Z,74761
2016-08-13T00:31:59.397Z,74761
2016-08-13T00:32:08.094Z,74761
2016-08-13T00:32:16.807Z,74765
2016-08-13T00:32:25.549Z,74760
2016-08-13T00:32:34.979Z,74762
2016-08-13T00:32:44.348Z,74763
2016-08-13T00:32:53.762Z,74762
2016-08-13T00:33:03.158Z,74761
2016-08-13T00:33:13.247Z,74760
2016-08-13T00:33:23.371Z,74762
2016-08-13T00:33:32.076Z,74758
2016-08-13T00:33:41.482Z,74758
2016-08-13T00:33:50.880Z,74756
2016-08-13T00:34:00.268Z,74759
2016-08-13T00:34:09.649Z,74761
2016-08-13T00:34:18.362Z,74763
2016-08-13T00:34:27.089Z,74762
2016-08-13T00:34:36.529Z,74761
2016-08-13T00:34:45.255Z,74761
2016-08-13T00:34:53.953Z,74760
2016-08-13T00:35:02.660Z,74759
2016-08-13T00:35:12.040Z,74761
2016-08-13T00:35:22.108Z,74765
2016-08-13T00:35:32.174Z,74761
2016-08-13T00:35:41.596Z,74759
2016-08-13T00:35:50.985Z,74757
2016-08-13T00:35:59.686Z,74758
2016-08-13T00:36:09.132Z,74763
2016-08-13T00:36:18.509Z,74760
2016-08-13T00:36:27.252Z,74757
2016-08-13T00:36:35.955Z,74756
2016-08-13T00:36:44.703Z,74753
2016-08-13T00:36:54.128Z,74760
2016-08-13T00:37:02.855Z,74760
2016-08-13T00:37:11.555Z,74762
2016-08-13T00:37:20.930Z,74759
2016-08-13T00:37:29.666Z,74756
2016-08-13T00:37:38.415Z,74759
2016-08-13T00:37:47.179Z,74756
2016-08-13T00:37:56.584Z,74758
2016-08-13T00:38:06.690Z,74759
2016-08-13T00:38:16.057Z,74758
2016-08-13T00:38:24.800Z,74758
2016-08-13T00:38:33.527Z,74758
2016-08-13T00:38:42.954Z,74755
2016-08-13T00:38:53.066Z,74756
2016-08-13T00:39:01.815Z,74758
2016-08-13T00:39:10.559Z,74760
2016-08-13T00:39:19.283Z,74756
2016-08-13T00:39:28.680Z,74761
2016-08-13T00:39:38.758Z,74757
2016-08-13T00:39:47.455Z,74756
2016-08-13T00:39:56.828Z,74759
2016-08-13T00:40:06.872Z,74758
2016-08-13T00:40:15.604Z,74759
2016-08-13T00:40:24.308Z,74758
2016-08-13T00:40:33.028Z,74758
2016-08-13T00:40:43.120Z,74758
2016-08-13T00:40:51.853Z,74759
2016-08-13T00:41:00.537Z,74758
2016-08-13T00:41:09.231Z,74754
2016-08-13T00:41:17.910Z,74757
2016-08-13T00:41:27.296Z,74760
2016-08-13T00:41:36.689Z,74762
2016-08-13T00:41:46.767Z,74762
2016-08-13T00:41:55.481Z,74756
2016-08-13T00:42:06.238Z,74758
2016-08-13T00:42:14.977Z,74759
2016-08-13T00:42:25.079Z,74760
2016-08-13T00:42:34.507Z,74760
2016-08-13T00:42:43.231Z,74757
2016-08-13T00:42:51.959Z,74756
2016-08-13T00:43:00.673Z,74761
2016-08-13T00:43:10.072Z,74758
2016-08-13T00:43:19.457Z,74757
2016-08-13T00:43:28.815Z,74755
2016-08-13T00:43:38.890Z,74759
2016-08-13T00:43:47.616Z,74758
2016-08-13T00:43:57.708Z,74758
2016-08-13T00:44:07.114Z,74756
2016-08-13T00:44:16.530Z,74758
2016-08-13T00:44:25.913Z,74757
2016-08-13T00:44:34.581Z,74756
2016-08-13T00:44:44.673Z,74759
2016-08-13T00:44:54.781Z,74756
2016-08-13T00:45:04.848Z,74758
2016-08-13T00:45:13.548Z,74757
2016-08-13T00:45:22.251Z,74758
2016-08-13T00:45:31.652Z,74759
2016-08-13T00:45:41.045Z,74760
2016-08-13T00:45:50.464Z,74759
2016-08-13T00:45:59.167Z,74757
2016-08-13T00:46:07.905Z,74757
2016-08-13T00:46:18.019Z,74757
2016-08-13T00:46:28.135Z,74758
2016-08-13T00:46:36.830Z,74760
2016-08-13T00:46:45.531Z,74762
2016-08-13T00:46:54.965Z,74759
2016-08-13T00:47:03.672Z,74759
2016-08-13T00:47:12.421Z,74762
2016-08-13T00:47:21.786Z,74762
2016-08-13T00:47:30.524Z,74759
2016-08-13T00:47:39.245Z,74764
2016-08-13T00:47:49.331Z,74760
2016-08-13T00:47:58.699Z,74759
2016-08-13T00:48:07.427Z,74755
2016-08-13T00:48:16.855Z,74757
2016-08-13T00:48:25.606Z,74762
2016-08-13T00:48:35.005Z,74762
2016-08-13T00:48:43.690Z,74760
2016-08-13T00:48:53.736Z,74760
2016-08-13T00:49:02.448Z,74758
2016-08-13T00:49:11.824Z,74762
2016-08-13T00:49:20.544Z,74762
2016-08-13T00:49:29.282Z,74759
2016-08-13T00:49:38.085Z,74760
2016-08-13T00:49:46.799Z,74759
2016-08-13T00:49:55.479Z,74758
2016-08-13T00:50:04.190Z,74757
2016-08-13T00:50:12.867Z,74757
2016-08-13T00:50:22.950Z,74756
2016-08-13T00:50:31.650Z,74761
2016-08-13T00:50:41.074Z,74760
2016-08-13T00:50:50.483Z,74763
2016-08-13T00:50:59.896Z,74762
2016-08-13T00:51:08.647Z,74759
2016-08-13T00:51:18.060Z,74758
2016-08-13T00:51:26.793Z,74755
2016-08-13T00:51:36.188Z,74756
2016-08-13T00:51:44.933Z,74756
2016-08-13T00:51:53.652Z,74762
2016-08-13T00:52:02.348Z,74758
2016-08-13T00:52:11.081Z,74757
2016-08-13T00:52:20.463Z,74758
2016-08-13T00:52:30.575Z,74758
2016-08-13T00:52:40.615Z,74758
2016-08-13T00:52:50.005Z,74760
2016-08-13T00:52:58.701Z,74759
2016-08-13T00:53:08.736Z,74758
2016-08-13T00:53:18.778Z,74756
2016-08-13T00:53:28.156Z,74757
2016-08-13T00:53:37.530Z,74759
2016-08-13T00:53:48.299Z,74759
2016-08-13T00:53:57.717Z,74756
2016-08-13T00:54:07.097Z,74758
2016-08-13T00:54:15.805Z,74761
2016-08-13T00:54:24.511Z,74757
2016-08-13T00:54:33.885Z,74756
2016-08-13T00:54:43.335Z,74757
2016-08-13T00:54:52.713Z,74754
2016-08-13T00:55:01.433Z,74760
2016-08-13T00:55:10.820Z,74758
2016-08-13T00:55:19.522Z,74757
2016-08-13T00:55:28.244Z,74756
2016-08-13T00:55:36.987Z,74756
2016-08-13T00:55:45.732Z,74759
2016-08-13T00:55:54.417Z,74758
2016-08-13T00:56:03.120Z,74758
2016-08-13T00:56:11.812Z,74757
2016-08-13T00:56:20.520Z,74756
2016-08-13T00:56:29.260Z,74757
2016-08-13T00:56:37.986Z,74760
2016-08-13T00:56:46.741Z,74760
2016-08-13T00:56:56.140Z,74763
2016-08-13T00:57:04.801Z,74760
2016-08-13T00:57:14.165Z,74762
2016-08-13T00:57:22.884Z,74761
2016-08-13T00:57:31.615Z,74758
2016-08-13T00:57:40.295Z,74756
2016-08-13T00:57:50.354Z,74753
2016-08-13T00:58:00.404Z,74758
2016-08-13T00:58:09.852Z,74757
2016-08-13T00:58:18.558Z,74762
2016-08-13T00:58:28.628Z,74760
2016-08-13T00:58:37.360Z,74761
2016-08-13T00:58:46.083Z,74757
2016-08-13T00:58:54.833Z,74759
2016-08-13T00:59:03.550Z,74757
2016-08-13T00:59:12.955Z,74756
2016-08-13T00:59:23.087Z,74756
2016-08-13T00:59:31.825Z,74760
2016-08-13T00:59:41.221Z,74760
2016-08-13T00:59:49.938Z,74757
2016-08-13T00:59:58.673Z,74757
2016-08-13T01:00:08.079Z,74759
2016-08-13T01:00:17.481Z,74761
2016-08-13T01:00:26.918Z,74763
2016-08-13T01:00:35.653Z,74759
2016-08-13T01:00:44.391Z,74761
2016-08-13T01:00:53.138Z,74759
2016-08-13T01:01:02.520Z,74761
2016-08-13T01:01:11.955Z,74758
2016-08-13T01:01:21.368Z,74755
2016-08-13T01:01:30.120Z,74760
2016-08-13T01:01:39.513Z,74758
2016-08-13T01:01:48.944Z,74764
2016-08-13T01:01:57.663Z,74757
2016-08-13T01:02:06.350Z,74761
2016-08-13T01:02:15.093Z,74762
2016-08-13T01:02:25.841Z,74756
2016-08-13T01:02:35.882Z,74758
2016-08-13T01:02:44.578Z,74757
2016-08-13T01:02:53.965Z,74762
2016-08-13T01:03:02.679Z,74758
2016-08-13T01:03:12.085Z,74756
2016-08-13T01:03:20.788Z,74755
2016-08-13T01:03:30.897Z,74753
2016-08-13T01:03:41.665Z,74759
2016-08-13T01:03:50.384Z,74757
2016-08-13T01:03:59.764Z,74755
2016-08-13T01:04:09.151Z,74761
2016-08-13T01:04:19.242Z,74760
2016-08-13T01:04:28.662Z,74761
2016-08-13T01:04:38.060Z,74758
2016-08-13T01:04:48.122Z,74755
2016-08-13T01:04:56.860Z,74756
2016-08-13T01:05:06.248Z,74760
2016-08-13T01:05:15.698Z,74760
2016-08-13T01:05:25.088Z,74765
2016-08-13T01:05:34.487Z,74761
2016-08-13T01:05:43.208Z,74759
2016-08-13T01:05:52.604Z,74757
2016-08-13T01:06:01.275Z,74757
2016-08-13T01:06:10.697Z,74760
2016-08-13T01:06:19.360Z,74758
2016-08-13T01:06:28.023Z,74758
2016-08-13T01:06:36.688Z,74759
2016-08-13T01:06:46.835Z,74762
2016-08-13T01:06:57.599Z,74760
2016-08-13T01:07:06.971Z,74758
2016-08-13T01:07:17.049Z,74761
2016-08-13T01:07:25.736Z,74758
2016-08-13T01:07:35.156Z,74759
2016-08-13T01:07:43.862Z,74763
2016-08-13T01:07:53.255Z,74761
2016-08-13T01:08:01.971Z,74759
2016-08-13T01:08:11.358Z,74761
2016-08-13T01:08:21.464Z,74760
2016-08-13T01:08:31.542Z,74758
2016-08-13T01:08:40.285Z,74758
2016-08-13T01:08:49.694Z,74761
2016-08-13T01:08:59.080Z,74764
2016-08-13T01:09:07.806Z,74766
2016-08-13T01:09:17.851Z,74764
2016-08-13T01:09:27.226Z,74763
2016-08-13T01:09:35.932Z,74760
2016-08-13T01:09:44.653Z,74756
2016-08-13T01:09:54.064Z,74757
2016-08-13T01:10:02.806Z,74757
2016-08-13T01:10:11.519Z,74759
2016-08-13T01:10:20.260Z,74757
2016-08-13T01:10:30.320Z,74762
2016-08-13T01:10:39.042Z,74760
2016-08-13T01:10:48.451Z,74765
2016-08-13T01:10:57.832Z,74761
2016-08-13T01:11:06.587Z,74758
2016-08-13T01:11:15.338Z,74757
2016-08-13T01:11:24.738Z,74752
2016-08-13T01:11:36.177Z,74753
2016-08-13T01:11:44.901Z,74753
2016-08-13T01:11:55.049Z,74755
2016-08-13T01:12:04.443Z,74756
2016-08-13T01:12:13.173Z,74756
2016-08-13T01:12:22.576Z,74756
2016-08-13T01:12:31.993Z,74754
2016-08-13T01:12:40.673Z,74752
2016-08-13T01:12:50.061Z,74755
2016-08-13T01:12:59.483Z,74754
2016-08-13T01:13:08.195Z,74751
2016-08-13T01:13:17.590Z,74752
2016-08-13T01:13:26.296Z,74755
2016-08-13T01:13:35.667Z,74755
2016-08-13T01:13:44.362Z,74759
2016-08-13T01:13:54.459Z,74760
2016-08-13T01:14:03.885Z,74755
2016-08-13T01:14:13.323Z,74753
2016-08-13T01:14:22.027Z,74757
2016-08-13T01:14:31.411Z,74755
2016-08-13T01:14:40.117Z,74755
2016-08-13T01:14:49.554Z,74756
2016-08-13T01:14:59.635Z,74756
2016-08-13T01:15:08.343Z,74754
2016-08-13T01:15:17.732Z,74757
2016-08-13T01:15:27.823Z,74755
2016-08-13T01:15:37.910Z,74755
2016-08-13T01:15:46.642Z,74755
2016-08-13T01:15:56.060Z,74756
2016-08-13T01:16:06.845Z,74757
2016-08-13T01:16:15.518Z,74754
2016-08-13T01:16:25.571Z,74757
2016-08-13T01:16:34.963Z,74754
2016-08-13T01:16:45.046Z,74757
2016-08-13T01:16:53.746Z,74756
2016-08-13T01:17:03.799Z,74758
2016-08-13T01:17:12.530Z,74758
2016-08-13T01:17:22.613Z,74752
2016-08-13T01:17:32.003Z,74752
2016-08-13T01:17:40.694Z,74751
2016-08-13T01:17:49.443Z,74753
2016-08-13T01:17:58.830Z,74753
2016-08-13T01:18:07.539Z,74754
2016-08-13T01:18:16.256Z,74753
2016-08-13T01:18:24.979Z,74753
2016-08-13T01:18:33.707Z,74758
2016-08-13T01:18:42.385Z,74757
2016-08-13T01:18:51.762Z,74759
2016-08-13T01:19:00.480Z,74754
2016-08-13T01:19:09.162Z,74758
2016-08-13T01:19:17.844Z,74754
2016-08-13T01:19:27.220Z,74756
2016-08-13T01:19:35.933Z,74757
2016-08-13T01:19:46.024Z,74756
2016-08-13T01:19:54.762Z,74754
2016-08-13T01:20:03.495Z,74752
2016-08-13T01:20:12.906Z,74754
2016-08-13T01:20:23.010Z,74754
2016-08-13T01:20:33.109Z,74754
2016-08-13T01:20:42.496Z,74756
2016-08-13T01:20:51.890Z,74755
2016-08-13T01:21:02.638Z,74754
2016-08-13T01:21:11.351Z,74757
2016-08-13T01:21:21.435Z,74754
2016-08-13T01:21:30.145Z,74755
2016-08-13T01:21:39.540Z,74755
2016-08-13T01:21:48.966Z,74757
2016-08-13T01:21:57.660Z,74754
2016-08-13T01:22:07.042Z,74754
2016-08-13T01:22:15.811Z,74755
2016-08-13T01:22:25.887Z,74753
2016-08-13T01:22:34.620Z,74750
2016-08-13T01:22:43.291Z,74754
2016-08-13T01:22:54.044Z,74750
2016-08-13T01:23:03.422Z,74750
2016-08-13T01:23:12.812Z,74750
2016-08-13T01:23:22.171Z,74751
2016-08-13T01:23:31.556Z,74748
2016-08-13T01:23:41.656Z,74751
2016-08-13T01:23:51.067Z,74754
2016-08-13T01:23:59.803Z,74751
2016-08-13T01:24:08.488Z,74754
2016-08-13T01:24:17.227Z,74747
2016-08-13T01:24:26.635Z,74751
2016-08-13T01:24:35.311Z,74752
2016-08-13T01:24:44.704Z,74751
2016-08-13T01:24:53.412Z,74756
2016-08-13T01:25:02.121Z,74754
2016-08-13T01:25:11.490Z,74754
2016-08-13T01:25:21.540Z,74754
2016-08-13T01:25:30.237Z,74751
2016-08-13T01:25:39.701Z,74752
2016-08-13T01:25:49.777Z,74752
2016-08-13T01:25:58.471Z,74753
2016-08-13T01:26:07.208Z,74751
2016-08-13T01:26:15.931Z,74750
2016-08-13T01:26:24.690Z,74749
2016-08-13T01:26:33.427Z,74750
2016-08-13T01:26:42.813Z,74753
2016-08-13T01:26:51.578Z,74750
2016-08-13T01:27:01.004Z,74750
2016-08-13T01:27:09.731Z,74751
2016-08-13T01:27:19.886Z,74753
2016-08-13T01:27:28.612Z,74758
2016-08-13T01:27:37.308Z,74750
2016-08-13T01:27:45.996Z,74755
2016-08-13T01:27:54.718Z,74756
2016-08-13T01:28:04.123Z,74757
2016-08-13T01:28:12.827Z,74753
2016-08-13T01:28:21.528Z,74755
2016-08-13T01:28:30.919Z,74752
2016-08-13T01:28:39.642Z,74752
2016-08-13T01:28:49.046Z,74753
2016-08-13T01:28:58.412Z,74750
2016-08-13T01:29:07.868Z,74751
2016-08-13T01:29:16.574Z,74752
2016-08-13T01:29:25.979Z,74750
2016-08-13T01:29:36.070Z,74751
2016-08-13T01:29:44.774Z,74754
2016-08-13T01:29:53.481Z,74752
2016-08-13T01:30:03.522Z,74751
2016-08-13T01:30:12.916Z,74754
2016-08-13T01:30:21.640Z,74750
2016-08-13T01:30:31.734Z,74756
2016-08-13T01:30:40.453Z,74753
2016-08-13T01:30:49.858Z,74755
2016-08-13T01:30:58.607Z,74757
2016-08-13T01:31:07.332Z,74753
2016-08-13T01:31:17.412Z,74753
2016-08-13T01:31:26.807Z,74755
2016-08-13T01:31:36.222Z,74753
2016-08-13T01:31:44.940Z,74749
2016-08-13T01:31:54.309Z,74750
2016-08-13T01:32:03.685Z,74750
2016-08-13T01:32:13.077Z,74747
2016-08-13T01:32:22.491Z,74749
2016-08-13T01:32:32.599Z,74753
2016-08-13T01:32:41.999Z,74751
2016-08-13T01:32:51.399Z,74751
2016-08-13T01:33:00.808Z,74747
2016-08-13T01:33:10.158Z,74751
2016-08-13T01:33:20.237Z,74752
2016-08-13T01:33:29.637Z,74750
2016-08-13T01:33:40.349Z,74749
2016-08-13T01:33:49.754Z,74750
2016-08-13T01:33:59.164Z,74752
2016-08-13T01:34:07.874Z,74751
2016-08-13T01:34:18.638Z,74746
2016-08-13T01:34:28.059Z,74752
2016-08-13T01:34:37.461Z,74751
2016-08-13T01:34:47.544Z,74747
2016-08-13T01:34:56.939Z,74750
2016-08-13T01:35:05.666Z,74748
2016-08-13T01:35:14.421Z,74744
2016-08-13T01:35:23.130Z,74750
2016-08-13T01:35:31.819Z,74749
2016-08-13T01:35:41.245Z,74747
2016-08-13T01:35:51.334Z,74751
2016-08-13T01:36:00.082Z,74749
2016-08-13T01:36:08.823Z,74749
2016-08-13T01:36:17.537Z,74747
2016-08-13T01:36:27.611Z,74748
2016-08-13T01:36:36.992Z,74750
2016-08-13T01:36:45.697Z,74748
2016-08-13T01:36:55.774Z,74749
2016-08-13T01:37:05.156Z,74746
2016-08-13T01:37:14.588Z,74746
2016-08-13T01:37:24.019Z,74749
2016-08-13T01:37:32.741Z,74745
2016-08-13T01:37:42.844Z,74749
2016-08-13T01:37:51.561Z,74746
2016-08-13T01:38:01.007Z,74743
2016-08-13T01:38:10.403Z,74749
2016-08-13T01:38:19.807Z,74747
2016-08-13T01:38:28.549Z,74748
2016-08-13T01:38:37.946Z,74749
2016-08-13T01:38:47.353Z,74745
2016-08-13T01:38:57.460Z,74745
2016-08-13T01:39:07.547Z,74744
2016-08-13T01:39:16.250Z,74747
2016-08-13T01:39:24.947Z,74744
2016-08-13T01:39:34.335Z,74747
2016-08-13T01:39:43.058Z,74747
2016-08-13T01:39:53.139Z,74745
2016-08-13T01:40:01.859Z,74748
2016-08-13T01:40:10.613Z,74745
2016-08-13T01:40:19.341Z,74748
2016-08-13T01:40:28.726Z,74745
2016-08-13T01:40:38.796Z,74744
2016-08-13T01:40:47.494Z,74745
2016-08-13T01:40:56.910Z,74747
2016-08-13T01:41:06.298Z,74743
2016-08-13T01:41:15.717Z,74745
2016-08-13T01:41:24.406Z,74744
2016-08-13T01:41:33.817Z,74745
2016-08-13T01:41:43.848Z,74743
2016-08-13T01:41:52.608Z,74748
2016-08-13T01:42:02.680Z,74747
2016-08-13T01:42:12.104Z,74748
2016-08-13T01:42:20.842Z,74746
2016-08-13T01:42:30.250Z,74741
2016-08-13T01:42:39.669Z,74744
2016-08-13T01:42:48.399Z,74745
2016-08-13T01:42:57.737Z,74744
2016-08-13T01:43:06.446Z,74744
2016-08-13T01:43:15.836Z,74744
2016-08-13T01:43:24.518Z,74743
2016-08-13T01:43:34.547Z,74743
2016-08-13T01:43:43.234Z,74745
2016-08-13T01:43:53.995Z,74743
2016-08-13T01:44:03.387Z,74742
2016-08-13T01:44:12.794Z,74745
2016-08-13T01:44:22.879Z,74743
2016-08-13T01:44:31.601Z,74741
2016-08-13T01:44:41.034Z,74746
2016-08-13T01:44:49.741Z,74741
2016-08-13T01:44:59.176Z,74742
2016-08-13T01:45:08.541Z,74745
2016-08-13T01:45:17.251Z,74741
2016-08-13T01:45:26.636Z,74743
2016-08-13T01:45:36.047Z,74744
2016-08-13T01:45:44.741Z,74742
2016-08-13T01:45:54.133Z,74743
2016-08-13T01:46:02.827Z,74745
2016-08-13T01:46:11.520Z,74745
2016-08-13T01:46:20.922Z,74744
2016-08-13T01:46:30.306Z,74742
2016-08-13T01:46:39.008Z,74746
2016-08-13T01:46:48.377Z,74741
2016-08-13T01:46:57.072Z,74745
2016-08-13T01:47:05.760Z,74744
2016-08-13T01:47:15.139Z,74741
2016-08-13T01:47:24.526Z,74744
2016-08-13T01:47:33.948Z,74744
2016-08-13T01:47:42.690Z,74742
2016-08-13T01:47:52.101Z,74742
2016-08-13T01:48:01.523Z,74743
2016-08-13T01:48:10.231Z,74741
2016-08-13T01:48:18.917Z,74741
2016-08-13T01:48:27.679Z,74740
2016-08-13T01:48:36.383Z,74741
2016-08-13T01:48:45.779Z,74743
2016-08-13T01:48:55.162Z,74742
2016-08-13T01:49:03.887Z,74743
2016-08-13T01:49:13.289Z,74743
2016-08-13T01:49:22.709Z,74741
2016-08-13T01:49:31.459Z,74742
2016-08-13T01:49:41.070Z,74744
2016-08-13T01:49:49.748Z,74746
2016-08-13T01:49:59.812Z,74741
2016-08-13T01:50:09.228Z,74742
2016-08-13T01:50:17.978Z,74739
2016-08-13T01:50:27.366Z,74742
2016-08-13T01:50:36.114Z,74740
2016-08-13T01:50:45.520Z,74742
2016-08-13T01:50:54.238Z,74744
2016-08-13T01:51:03.649Z,74740
2016-08-13T01:51:13.023Z,74742
2016-08-13T01:51:21.743Z,74744
2016-08-13T01:51:31.145Z,74740
2016-08-13T01:51:40.570Z,74744
2016-08-13T01:51:49.289Z,74742
2016-08-13T01:51:58.007Z,74740
2016-08-13T01:52:07.412Z,74739
2016-08-13T01:52:16.798Z,74741
2016-08-13T01:52:26.173Z,74740
2016-08-13T01:52:35.560Z,74743
2016-08-13T01:52:44.341Z,74739
2016-08-13T01:52:53.087Z,74742
2016-08-13T01:53:02.481Z,74741
2016-08-13T01:53:12.577Z,74740
2016-08-13T01:53:21.318Z,74741
2016-08-13T01:53:31.412Z,74743
2016-08-13T01:53:40.141Z,74742
2016-08-13T01:53:49.517Z,74740
2016-08-13T01:53:58.227Z,74741
2016-08-13T01:54:07.641Z,74742
2016-08-13T01:54:17.043Z,74738
2016-08-13T01:54:27.138Z,74741
2016-08-13T01:54:35.856Z,74741
2016-08-13T01:54:45.246Z,74742
2016-08-13T01:54:53.931Z,74741
2016-08-13T01:55:04.031Z,74741
2016-08-13T01:55:13.438Z,74742
2016-08-13T01:55:22.149Z,74739
2016-08-13T01:55:30.835Z,74740
2016-08-13T01:55:40.270Z,74741
2016-08-13T01:55:48.984Z,74742
2016-08-13T01:55:57.706Z,74746
2016-08-13T01:56:06.429Z,74743
2016-08-13T01:56:15.151Z,74739
2016-08-13T01:56:23.865Z,74740
2016-08-13T01:56:32.561Z,74742
2016-08-13T01:56:41.260Z,74743
2016-08-13T01:56:49.942Z,74740
2016-08-13T01:56:59.974Z,74741
2016-08-13T01:57:08.696Z,74739
2016-08-13T01:57:18.124Z,74742
2016-08-13T01:57:26.862Z,74741
2016-08-13T01:57:36.254Z,74745
2016-08-13T01:57:44.967Z,74742
2016-08-13T01:57:53.711Z,74742
2016-08-13T01:58:03.105Z,74743
2016-08-13T01:58:11.811Z,74743
2016-08-13T01:58:20.519Z,74740
2016-08-13T01:58:29.916Z,74745
2016-08-13T01:58:38.608Z,74743